Time;durP1;ratioP1;P1;durP2;ratioP2;P2;SDS_P1;SDS_P2;PMS_P1;PMS_P2;Temp;Humidity;BMP_temperature;BMP_pressure;BME280_temperature;BME280_humidity;BME280_pressure;Samples;Min_cycle;Max_cycle;Signal;HPM_P1;HPM_P2
2022/03/28 00:01:53;;;;;;;8.32;3.03;;;11.10;91.50;;;;;;5026762;28;20117;-66
2022/03/28 00:04:19;;;;;;;8.57;2.33;;;11.10;91.50;;;;;;5016089;28;20465;-66
2022/03/28 00:06:45;;;;;;;6.20;2.38;;;11.00;91.50;;;;;;5034827;28;20033;-66
2022/03/28 00:09:14;;;;;;;11.30;2.55;;;11.00;91.60;;;;;;5031424;28;20045;-66
2022/03/28 00:11:40;;;;;;;7.88;2.55;;;10.90;91.60;;;;;;5023966;28;20080;-66
2022/03/28 00:14:08;;;;;;;8.20;2.75;;;11.00;91.60;;;;;;5034131;28;20025;-66
2022/03/28 00:16:34;;;;;;;4.10;2.13;;;11.00;91.60;;;;;;5034064;28;20087;-66
2022/03/28 00:19:00;;;;;;;13.18;2.85;;;11.00;91.70;;;;;;5033097;28;20029;-66
2022/03/28 00:21:25;;;;;;;7.40;2.38;;;11.00;91.70;;;;;;5023409;28;20120;-66
2022/03/28 00:23:52;;;;;;;11.65;3.08;;;11.00;91.70;;;;;;5030998;28;20033;-66
2022/03/28 00:26:19;;;;;;;4.40;2.60;;;11.00;91.70;;;;;;5033273;28;20029;-66
2022/03/28 00:28:45;;;;;;;4.95;2.60;;;11.00;91.70;;;;;;5015336;28;20436;-66
2022/03/28 00:31:10;;;;;;;5.53;2.47;;;11.00;91.70;;;;;;5026454;28;20037;-66
2022/03/28 00:33:37;;;;;;;3.97;2.50;;;11.00;91.70;;;;;;5026767;28;20037;-65
2022/03/28 00:36:04;;;;;;;6.28;2.60;;;10.90;91.80;;;;;;5013896;28;20404;-65
2022/03/28 00:38:30;;;;;;;5.85;2.00;;;10.90;91.80;;;;;;5020568;28;20056;-66
2022/03/28 00:40:56;;;;;;;4.82;2.70;;;10.80;91.70;;;;;;5032807;28;20477;-66
2022/03/28 00:43:21;;;;;;;7.82;2.70;;;10.80;91.70;;;;;;5033433;28;20032;-66
2022/03/28 00:45:47;;;;;;;7.53;2.78;;;10.80;91.80;;;;;;5022153;28;20129;-66
2022/03/28 00:48:13;;;;;;;5.03;2.78;;;10.80;91.90;;;;;;5030544;28;20025;-66
2022/03/28 00:50:45;;;;;;;8.07;3.28;;;10.80;92.20;;;;;;5033226;28;20053;-66
2022/03/28 00:53:13;;;;;;;5.43;2.65;;;10.70;91.90;;;;;;5019945;28;20091;-65
2022/03/28 00:55:40;;;;;;;5.45;2.55;;;10.70;92.00;;;;;;5033096;28;20053;-65
2022/03/28 00:58:06;;;;;;;8.85;3.20;;;10.70;92.00;;;;;;5013706;28;20029;-65
2022/03/28 01:00:31;;;;;;;6.15;3.05;;;10.70;92.00;;;;;;5026528;28;20905;-66
2022/03/28 01:02:57;;;;;;;7.65;3.58;;;10.70;92.00;;;;;;5032240;28;20053;-66
2022/03/28 01:05:26;;;;;;;10.40;4.35;;;10.70;92.10;;;;;;5032859;28;20132;-66
2022/03/28 01:07:52;;;;;;;6.57;4.00;;;10.70;92.10;;;;;;5032428;28;20060;-66
2022/03/28 01:10:18;;;;;;;10.18;3.75;;;10.60;92.10;;;;;;5031232;28;20392;-65
2022/03/28 01:12:44;;;;;;;6.40;3.47;;;10.70;92.10;;;;;;5013376;28;20504;-66
2022/03/28 01:15:14;;;;;;;4.90;2.70;;;10.60;92.00;;;;;;5012539;28;20025;-65
2022/03/28 01:20:39;;;;;;;4.82;2.83;;;10.60;92.10;;;;;;5016768;28;20045;-66
2022/03/28 01:23:05;;;;;;;3.50;2.50;;;10.60;92.10;;;;;;5013753;28;20077;-66
2022/03/28 01:25:31;;;;;;;6.63;3.40;;;10.50;92.40;;;;;;5031709;28;20033;-65
2022/03/28 01:27:58;;;;;;;8.15;2.83;;;10.50;92.10;;;;;;5032609;28;20048;-65
2022/03/28 01:30:30;;;;;;;5.35;2.90;;;10.50;92.20;;;;;;5022297;28;20044;-65
2022/03/28 01:32:57;;;;;;;6.82;3.50;;;10.50;92.10;;;;;;5014654;28;20030;-66
2022/03/28 01:35:31;;;;;;;6.03;3.00;;;10.50;92.10;;;;;;5029743;28;20041;-66
2022/03/28 01:37:56;;;;;;;;;;;10.50;92.10;;;;;;5013281;28;20096;-66
2022/03/28 01:40:22;;;;;;;5.60;2.75;;;10.50;92.10;;;;;;5029758;28;19909;-66
2022/03/28 01:42:49;;;;;;;7.82;2.35;;;10.50;92.00;;;;;;5031439;28;20026;-65
2022/03/28 01:45:15;;;;;;;8.13;2.70;;;10.50;92.00;;;;;;5018394;28;20029;-65
2022/03/28 01:47:41;;;;;;;7.90;2.83;;;10.50;92.10;;;;;;5032392;28;20029;-65
2022/03/28 01:50:07;;;;;;;7.43;2.38;;;10.50;92.10;;;;;;5025383;28;20038;-65
2022/03/28 01:52:33;;;;;;;3.35;2.10;;;10.50;92.20;;;;;;5025666;28;20041;-66
2022/03/28 01:54:59;;;;;;;3.00;1.80;;;10.40;92.20;;;;;;5031883;28;20081;-65
2022/03/28 01:57:25;;;;;;;4.28;2.22;;;10.40;92.20;;;;;;5030349;28;20073;-67
2022/03/28 01:59:50;;;;;;;7.55;2.60;;;10.40;92.30;;;;;;5031989;28;20087;-66
2022/03/28 02:02:16;;;;;;;4.25;2.63;;;10.40;92.30;;;;;;5031951;28;20037;-66
2022/03/28 02:04:42;;;;;;;5.22;2.53;;;10.40;92.30;;;;;;5031363;28;20034;-65
2022/03/28 02:07:07;;;;;;;5.47;2.60;;;10.40;92.30;;;;;;5030287;28;20520;-66
2022/03/28 02:09:33;;;;;;;3.92;2.53;;;10.40;92.30;;;;;;5030883;28;20033;-65
2022/03/28 02:11:59;;;;;;;1.73;1.45;;;10.40;92.30;;;;;;5029934;28;20037;-66
2022/03/28 02:14:24;;;;;;;3.00;1.92;;;10.40;92.30;;;;;;5030861;28;20025;-66
2022/03/28 02:16:50;;;;;;;2.70;1.80;;;10.40;92.40;;;;;;5028942;28;20465;-71
2022/03/28 02:19:15;;;;;;;2.35;1.90;;;10.40;92.40;;;;;;5028644;28;20079;-72
2022/03/28 02:21:41;;;;;;;2.47;1.50;;;10.30;92.30;;;;;;5028544;28;20036;-71
2022/03/28 02:24:07;;;;;;;2.17;1.30;;;10.30;92.30;;;;;;5029918;28;20064;-67
2022/03/28 02:26:32;;;;;;;2.40;1.65;;;10.30;92.30;;;;;;5029253;28;20029;-67
2022/03/28 02:28:58;;;;;;;2.95;1.65;;;10.30;92.30;;;;;;5020358;28;20137;-67
2022/03/28 02:31:24;;;;;;;2.85;1.70;;;10.30;92.20;;;;;;5031676;28;20036;-67
2022/03/28 02:33:49;;;;;;;1.88;1.60;;;10.30;92.20;;;;;;5023309;28;20034;-67
2022/03/28 02:36:15;;;;;;;2.10;1.60;;;10.30;92.10;;;;;;5016189;28;20092;-69
2022/03/28 02:38:41;;;;;;;3.55;1.67;;;10.40;92.00;;;;;;5028829;28;20071;-66
2022/03/28 02:41:06;;;;;;;2.25;1.70;;;10.40;92.00;;;;;;5030794;28;20041;-67
2022/03/28 02:43:32;;;;;;;1.88;1.40;;;10.40;92.00;;;;;;5027408;28;20102;-66
2022/03/28 02:45:58;;;;;;;1.13;0.93;;;10.40;91.90;;;;;;5030227;28;20036;-66
2022/03/28 02:48:23;;;;;;;2.35;0.95;;;10.40;91.90;;;;;;5027473;28;20022;-68
2022/03/28 02:50:49;;;;;;;1.05;0.90;;;10.40;91.90;;;;;;5013180;28;20378;-68
2022/03/28 02:53:15;;;;;;;1.10;1.00;;;10.40;91.80;;;;;;5026290;28;20575;-66
2022/03/28 02:55:41;;;;;;;1.50;1.25;;;10.40;91.70;;;;;;5029884;28;20049;-66
2022/03/28 02:58:06;;;;;;;1.13;1.02;;;10.40;91.70;;;;;;5030068;28;20037;-66
2022/03/28 03:00:32;;;;;;;2.17;1.40;;;10.40;91.70;;;;;;5028945;28;20041;-67
2022/03/28 03:02:58;;;;;;;1.77;1.27;;;10.30;91.70;;;;;;5030354;28;20037;-66
2022/03/28 03:05:23;;;;;;;0.85;0.80;;;10.40;91.70;;;;;;5030114;28;20112;-66
2022/03/28 03:07:49;;;;;;;0.90;0.90;;;10.30;91.70;;;;;;5028932;28;20095;-67
2022/03/28 03:10:21;;;;;;;1.17;1.08;;;10.30;91.70;;;;;;5030048;28;20195;-66
2022/03/28 03:12:47;;;;;;;1.75;1.23;;;10.30;91.70;;;;;;5029525;28;20030;-66
2022/03/28 03:15:13;;;;;;;1.30;1.20;;;10.30;91.70;;;;;;5029475;28;20076;-66
2022/03/28 03:17:38;;;;;;;3.28;1.50;;;10.30;91.70;;;;;;5029767;28;20460;-66
2022/03/28 03:20:05;;;;;;;1.80;1.48;;;10.30;91.70;;;;;;5030029;28;20026;-66
2022/03/28 03:22:31;;;;;;;1.80;1.40;;;10.30;91.70;;;;;;5029214;28;20109;-66
2022/03/28 03:24:57;;;;;;;1.90;1.50;;;10.20;91.70;;;;;;5030225;28;20571;-66
2022/03/28 03:27:23;;;;;;;2.17;1.73;;;10.20;91.80;;;;;;5017351;28;20030;-66
2022/03/28 03:29:49;;;;;;;2.47;1.85;;;10.20;91.80;;;;;;5010696;28;20034;-66
2022/03/28 03:32:14;;;;;;;2.50;1.90;;;10.20;91.90;;;;;;5012479;28;20109;-66
2022/03/28 03:34:40;;;;;;;3.42;2.17;;;10.10;91.90;;;;;;5030903;28;20539;-66
2022/03/28 03:37:09;;;;;;;4.03;2.40;;;10.20;92.00;;;;;;5030091;28;20448;-66
2022/03/28 03:39:35;;;;;;;3.60;2.45;;;10.10;92.00;;;;;;5030662;28;20461;-66
2022/03/28 03:42:01;;;;;;;6.15;3.45;;;10.10;92.10;;;;;;5027619;28;20079;-66
2022/03/28 03:44:27;;;;;;;6.53;3.28;;;10.10;92.10;;;;;;5010847;28;20122;-66
2022/03/28 03:46:53;;;;;;;5.63;3.85;;;10.10;92.10;;;;;;5018557;28;20033;-67
2022/03/28 03:49:19;;;;;;;8.43;3.50;;;10.10;92.10;;;;;;5010530;28;20081;-67
2022/03/28 03:51:45;;;;;;;6.07;3.50;;;10.10;92.20;;;;;;5022384;28;20029;-67
2022/03/28 03:54:11;;;;;;;5.40;3.55;;;10.10;92.20;;;;;;5012053;28;20156;-66
2022/03/28 03:56:40;;;;;;;10.15;4.07;;;10.10;92.20;;;;;;5022242;28;20058;-66
2022/03/28 03:59:06;;;;;;;6.93;3.80;;;10.10;92.30;;;;;;5030585;28;20759;-66
2022/03/28 04:01:31;;;;;;;9.65;4.22;;;10.10;92.30;;;;;;5029756;28;20049;-66
2022/03/28 04:03:58;;;;;;;6.85;4.15;;;10.10;92.30;;;;;;5030126;28;20432;-66
2022/03/28 04:06:24;;;;;;;5.68;4.00;;;10.10;92.50;;;;;;5030514;28;20030;-66
2022/03/28 04:08:49;;;;;;;7.82;4.20;;;10.10;92.30;;;;;;5030369;28;20468;-66
2022/03/28 04:11:15;;;;;;;8.57;4.70;;;10.10;92.30;;;;;;5030058;28;20045;-66
2022/03/28 04:13:41;;;;;;;6.10;3.97;;;10.10;92.30;;;;;;5030761;28;20640;-66
2022/03/28 04:16:07;;;;;;;9.38;3.85;;;10.10;92.30;;;;;;5030309;28;20038;-66
2022/03/28 04:18:33;;;;;;;7.30;4.18;;;10.10;92.30;;;;;;5029678;28;20041;-67
2022/03/28 04:20:58;;;;;;;5.20;3.50;;;10.00;92.30;;;;;;5031128;28;20069;-66
2022/03/28 04:23:25;;;;;;;8.20;4.13;;;10.00;92.30;;;;;;5022592;28;20127;-66
2022/03/28 04:25:51;;;;;;;6.40;4.00;;;10.00;92.40;;;;;;5033291;28;20079;-66
2022/03/28 04:28:17;;;;;;;6.82;3.90;;;10.00;92.40;;;;;;5033814;28;20476;-66
2022/03/28 04:30:43;;;;;;;6.72;4.05;;;10.00;92.40;;;;;;5020614;28;20533;-66
2022/03/28 04:33:09;;;;;;;13.68;4.40;;;10.00;92.50;;;;;;5034620;28;20109;-66
2022/03/28 04:35:36;;;;;;;8.48;3.53;;;10.00;92.50;;;;;;5031155;28;20081;-66
2022/03/28 04:38:05;;;;;;;6.38;3.35;;;10.00;92.50;;;;;;5024106;28;20045;-66
2022/03/28 04:40:33;;;;;;;8.63;4.50;;;10.00;92.50;;;;;;5016000;28;20771;-67
2022/03/28 04:42:59;;;;;;;6.40;4.28;;;10.00;92.60;;;;;;5015251;28;20034;-67
2022/03/28 04:45:25;;;;;;;7.57;3.83;;;10.00;92.60;;;;;;5024611;28;20026;-69
2022/03/28 04:47:50;;;;;;;5.20;4.07;;;10.00;92.60;;;;;;5033922;28;20446;-67
2022/03/28 04:50:16;;;;;;;4.45;3.22;;;10.00;92.60;;;;;;5034861;28;20389;-67
2022/03/28 04:52:42;;;;;;;7.60;3.80;;;10.00;92.60;;;;;;5026294;28;20037;-71
2022/03/28 04:55:08;;;;;;;7.85;4.25;;;9.90;92.50;;;;;;5028388;28;20061;-72
2022/03/28 04:57:34;;;;;;;6.43;4.00;;;9.90;92.50;;;;;;5033620;28;20096;-70
2022/03/28 05:00:00;;;;;;;6.35;4.00;;;9.90;92.50;;;;;;5032890;28;20456;-67
2022/03/28 05:02:26;;;;;;;4.20;3.00;;;10.00;92.50;;;;;;5032389;28;20025;-67
2022/03/28 05:04:51;;;;;;;7.00;4.47;;;10.00;92.50;;;;;;5032167;28;20037;-66
2022/03/28 05:07:24;;;;;;;3.97;2.25;;;9.90;92.50;;;;;;5032322;28;20422;-67
2022/03/28 05:09:50;;;;;;;4.38;2.50;;;9.90;92.50;;;;;;5033846;28;20124;-68
2022/03/28 05:12:16;;;;;;;2.75;2.25;;;9.90;92.50;;;;;;5033304;28;20175;-69
2022/03/28 05:14:41;;;;;;;4.25;2.47;;;9.90;92.50;;;;;;5031639;28;20342;-68
2022/03/28 05:17:07;;;;;;;7.47;2.33;;;9.90;92.50;;;;;;5032416;28;20045;-67
2022/03/28 05:19:36;;;;;;;5.82;2.40;;;9.90;92.50;;;;;;5032026;28;20040;-67
2022/03/28 05:22:02;;;;;;;4.05;2.50;;;9.90;92.50;;;;;;5032494;28;20033;-67
2022/03/28 05:24:27;;;;;;;6.43;2.78;;;9.90;92.60;;;;;;5032532;28;20377;-66
2022/03/28 05:26:56;;;;;;;5.75;3.03;;;9.90;92.60;;;;;;5032229;28;20041;-66
2022/03/28 05:29:24;;;;;;;6.80;3.78;;;9.90;92.60;;;;;;5031124;28;20021;-66
2022/03/28 05:31:50;;;;;;;4.78;3.40;;;9.90;92.60;;;;;;5031415;28;20049;-67
2022/03/28 05:34:16;;;;;;;5.88;3.88;;;9.90;92.60;;;;;;5031517;28;20039;-66
2022/03/28 05:36:43;;;;;;;6.68;3.67;;;9.90;92.70;;;;;;5028647;28;20069;-67
2022/03/28 05:39:09;;;;;;;7.60;3.63;;;9.90;92.70;;;;;;5031184;28;20025;-67
2022/03/28 05:41:35;;;;;;;9.18;4.05;;;9.80;92.80;;;;;;5030468;28;20549;-69
2022/03/28 05:44:01;;;;;;;7.10;4.25;;;9.80;92.80;;;;;;5030730;28;20029;-67
2022/03/28 05:46:27;;;;;;;4.68;3.50;;;9.80;92.80;;;;;;5031065;28;20632;-70
2022/03/28 05:48:53;;;;;;;8.13;4.00;;;9.80;92.80;;;;;;5030618;28;20033;-69
2022/03/28 05:51:19;;;;;;;8.25;4.85;;;9.80;92.90;;;;;;5031229;28;20453;-66
2022/03/28 05:53:45;;;;;;;13.82;7.05;;;9.80;92.90;;;;;;5031873;28;20061;-66
2022/03/28 05:56:10;;;;;;;9.88;6.18;;;9.80;92.90;;;;;;5017946;28;20050;-67
2022/03/28 05:58:36;;;;;;;10.57;5.57;;;9.80;92.90;;;;;;5031197;28;20034;-66
2022/03/28 06:01:02;;;;;;;7.10;4.75;;;9.90;92.90;;;;;;5032086;28;20029;-66
2022/03/28 06:03:28;;;;;;;6.25;4.65;;;9.80;92.80;;;;;;5031293;28;20362;-66
2022/03/28 06:05:55;;;;;;;9.43;7.00;;;9.90;92.90;;;;;;5030855;28;20034;-66
2022/03/28 06:08:21;;;;;;;10.20;6.53;;;9.90;92.90;;;;;;5021184;28;20033;-67
2022/03/28 06:10:47;;;;;;;12.38;8.00;;;9.90;92.90;;;;;;5032792;28;20113;-66
2022/03/28 06:13:14;;;;;;;11.43;6.93;;;9.90;92.90;;;;;;5032041;28;20194;-67
2022/03/28 06:15:39;;;;;;;9.95;5.47;;;9.80;92.90;;;;;;5017580;28;20033;-67
2022/03/28 06:18:05;;;;;;;14.48;5.75;;;9.80;92.90;;;;;;5012901;28;20048;-66
2022/03/28 06:20:34;;;;;;;10.13;6.03;;;9.90;93.00;;;;;;5028132;28;20040;-66
2022/03/28 06:23:02;;;;;;;10.15;5.13;;;9.80;93.00;;;;;;5031229;28;20116;-67
2022/03/28 06:25:31;;;;;;;9.43;6.15;;;9.90;93.00;;;;;;5015355;28;20033;-67
2022/03/28 06:27:56;;;;;;;12.20;5.78;;;9.80;93.00;;;;;;5013032;28;20026;-67
2022/03/28 06:30:22;;;;;;;8.43;5.28;;;9.80;93.00;;;;;;5028632;28;20037;-67
2022/03/28 06:32:48;;;;;;;15.52;6.22;;;9.90;93.00;;;;;;5021883;28;20030;-67
2022/03/28 06:35:13;;;;;;;9.88;5.72;;;9.90;93.30;;;;;;5016685;28;20028;-67
2022/03/28 06:37:39;;;;;;;9.90;6.28;;;9.90;93.00;;;;;;5032294;28;20394;-67
2022/03/28 06:40:15;;;;;;;9.35;6.72;;;9.90;93.00;;;;;;5013885;28;20044;-67
2022/03/28 06:42:40;;;;;;;12.30;7.25;;;10.00;93.00;;;;;;5025383;28;20127;-67
2022/03/28 06:45:09;;;;;;;10.75;6.45;;;10.00;93.00;;;;;;5030213;28;20619;-67
2022/03/28 06:47:34;;;;;;;12.77;5.32;;;10.00;93.00;;;;;;5030773;28;20543;-67
2022/03/28 06:50:00;;;;;;;7.97;4.75;;;9.90;93.00;;;;;;5025564;28;20034;-67
2022/03/28 06:52:25;;;;;;;10.38;5.13;;;10.00;93.00;;;;;;5029025;28;20127;-67
2022/03/28 06:54:51;;;;;;;10.98;5.63;;;10.00;93.00;;;;;;5021171;28;20359;-66
2022/03/28 06:57:17;;;;;;;8.98;4.72;;;10.00;93.00;;;;;;5030541;28;20052;-69
2022/03/28 06:59:43;;;;;;;11.70;5.88;;;10.00;93.00;;;;;;5021208;28;20037;-67
2022/03/28 07:02:09;;;;;;;15.20;6.60;;;10.00;93.00;;;;;;5012104;28;20041;-67
2022/03/28 07:04:34;;;;;;;14.85;7.22;;;10.00;93.00;;;;;;5012310;28;20037;-67
2022/03/28 07:07:00;;;;;;;11.48;6.82;;;10.10;93.10;;;;;;5029636;28;20060;-66
2022/03/28 07:09:26;;;;;;;8.98;6.63;;;10.10;93.10;;;;;;5031315;28;20071;-67
2022/03/28 07:11:51;;;;;;;10.68;6.07;;;10.10;93.00;;;;;;5017702;28;20482;-67
2022/03/28 07:14:17;;;;;;;8.10;5.22;;;10.10;93.00;;;;;;5018020;28;20057;-66
2022/03/28 07:16:43;;;;;;;14.15;5.00;;;10.10;93.00;;;;;;5030413;28;20044;-67
2022/03/28 07:19:09;;;;;;;12.23;5.78;;;10.20;93.00;;;;;;5030044;28;20377;-67
2022/03/28 07:21:35;;;;;;;12.60;5.82;;;10.30;93.00;;;;;;5029845;28;20025;-67
2022/03/28 07:24:01;;;;;;;10.18;5.60;;;10.30;93.00;;;;;;5030928;28;20082;-67
2022/03/28 07:26:27;;;;;;;11.52;3.53;;;10.30;93.00;;;;;;5024035;28;20452;-67
2022/03/28 07:28:52;;;;;;;6.78;3.42;;;10.30;92.90;;;;;;5025065;28;20037;-67
2022/03/28 07:31:18;;;;;;;5.68;3.83;;;10.40;92.90;;;;;;5032812;28;20030;-66
2022/03/28 07:33:45;;;;;;;11.45;4.00;;;10.40;92.90;;;;;;5017513;28;20026;-66
2022/03/28 07:36:12;;;;;;;10.98;4.30;;;10.40;92.90;;;;;;5012466;28;20034;-66
2022/03/28 07:38:41;;;;;;;9.85;4.25;;;10.40;92.90;;;;;;5024619;28;20149;-67
2022/03/28 07:41:06;;;;;;;9.27;3.72;;;10.50;92.90;;;;;;5021085;28;20029;-67
2022/03/28 07:43:32;;;;;;;7.40;3.92;;;10.50;92.90;;;;;;5031007;28;20060;-67
2022/03/28 07:45:58;;;;;;;9.05;4.05;;;10.50;92.80;;;;;;5026779;28;20032;-67
2022/03/28 07:48:24;;;;;;;8.07;5.05;;;10.60;93.10;;;;;;5030843;28;20034;-67
2022/03/28 07:50:50;;;;;;;9.00;4.13;;;10.60;92.80;;;;;;5031509;28;20029;-67
2022/03/28 07:53:17;;;;;;;12.40;4.90;;;10.60;92.80;;;;;;5020289;28;20034;-67
2022/03/28 07:55:43;;;;;;;10.45;4.85;;;10.60;92.70;;;;;;5031859;28;20136;-67
2022/03/28 07:58:09;;;;;;;12.02;5.10;;;10.70;92.70;;;;;;5036225;28;20049;-67
2022/03/28 08:00:37;;;;;;;9.80;5.32;;;10.60;92.70;;;;;;5035640;28;20485;-67
2022/03/28 08:03:04;;;;;;;13.13;5.00;;;10.70;92.70;;;;;;5034353;28;20052;-69
2022/03/28 08:05:30;;;;;;;12.20;4.95;;;10.70;92.60;;;;;;5022335;28;20037;-68
2022/03/28 08:07:56;;;;;;;7.50;4.72;;;10.70;92.60;;;;;;5035889;28;20498;-68
2022/03/28 08:10:23;;;;;;;12.48;5.80;;;10.80;92.60;;;;;;5033863;28;20049;-68
2022/03/28 08:12:50;;;;;;;15.60;6.32;;;10.80;92.60;;;;;;5034318;28;20029;-68
2022/03/28 08:15:16;;;;;;;13.77;7.20;;;10.80;92.50;;;;;;5033842;28;20049;-68
2022/03/28 08:17:42;;;;;;;13.18;7.22;;;10.80;92.40;;;;;;5020799;28;20114;-68
2022/03/28 08:20:10;;;;;;;16.42;6.78;;;10.80;92.40;;;;;;5021076;28;20049;-68
2022/03/28 08:22:37;;;;;;;17.15;7.82;;;10.80;92.40;;;;;;5029746;28;20696;-68
2022/03/28 08:25:07;;;;;;;14.27;8.23;;;10.80;92.60;;;;;;5030081;28;20045;-68
2022/03/28 08:27:34;;;;;;;13.95;7.07;;;10.90;92.40;;;;;;5030050;28;20409;-68
2022/03/28 08:29:59;;;;;;;18.85;9.40;;;10.90;92.30;;;;;;5027075;28;20495;-68
2022/03/28 08:32:25;;;;;;;16.33;8.70;;;11.00;92.30;;;;;;5027262;28;20025;-68
2022/03/28 08:34:51;;;;;;;17.05;8.85;;;11.00;92.30;;;;;;5033523;28;20060;-69
2022/03/28 08:37:17;;;;;;;17.95;9.45;;;11.00;92.20;;;;;;5032683;28;20047;-70
2022/03/28 08:39:46;;;;;;;14.60;8.05;;;11.00;92.10;;;;;;5032884;28;20496;-68
2022/03/28 08:42:12;;;;;;;17.67;8.23;;;11.10;92.10;;;;;;5033581;28;20068;-68
2022/03/28 08:44:39;;;;;;;18.23;7.65;;;11.10;92.10;;;;;;5032995;28;20025;-68
2022/03/28 08:47:12;;;;;;;23.38;9.40;;;11.10;91.90;;;;;;5033643;28;20168;-68
2022/03/28 08:49:38;;;;;;;17.30;8.55;;;11.10;91.90;;;;;;5034699;28;20052;-68
2022/03/28 08:52:05;;;;;;;10.82;6.30;;;11.10;91.80;;;;;;5032848;28;20432;-68
2022/03/28 08:54:31;;;;;;;14.38;7.85;;;11.10;91.80;;;;;;5034266;28;20034;-70
2022/03/28 08:56:57;;;;;;;19.52;7.43;;;11.10;91.70;;;;;;5018048;28;20048;-66
2022/03/28 08:59:23;;;;;;;14.65;8.35;;;11.10;91.70;;;;;;5024251;28;20469;-67
2022/03/28 09:01:50;;;;;;;12.55;7.38;;;11.10;91.70;;;;;;5017184;28;20042;-67
2022/03/28 09:04:19;;;;;;;17.77;9.30;;;11.10;91.70;;;;;;5027778;28;20025;-67
2022/03/28 09:06:45;;;;;;;12.70;7.80;;;11.10;91.70;;;;;;5031199;28;20500;-69
2022/03/28 09:09:38;;;;;;;17.02;8.23;;;11.10;91.70;;;;;;5032669;28;20069;-70
2022/03/28 09:12:09;;;;;;;15.82;8.40;;;11.10;91.80;;;;;;5027323;28;20033;-69
2022/03/28 09:14:37;;;;;;;17.20;9.18;;;11.20;91.70;;;;;;5023574;28;20390;-70
2022/03/28 09:17:04;;;;;;;16.38;8.43;;;11.20;91.80;;;;;;5032933;28;20049;-71
2022/03/28 09:19:54;;;;;;;18.25;7.60;;;11.20;92.10;;;;;;5031892;28;20033;-68
2022/03/28 09:22:25;;;;;;;13.73;7.63;;;11.30;91.80;;;;;;5013237;28;20057;-67
2022/03/28 09:24:53;;;;;;;14.77;8.73;;;11.30;91.70;;;;;;5030973;28;20026;-67
2022/03/28 09:27:22;;;;;;;14.57;8.07;;;11.30;91.70;;;;;;5032913;28;20030;-67
2022/03/28 09:30:10;;;;;;;26.13;9.27;;;11.30;91.70;;;;;;5019612;28;20412;-67
2022/03/28 09:32:53;;;;;;;16.65;9.07;;;11.40;91.60;;;;;;5033022;28;20088;-67
2022/03/28 09:35:23;;;;;;;16.23;7.60;;;11.40;91.50;;;;;;5033366;28;20130;-67
2022/03/28 09:38:05;;;;;;;12.68;6.53;;;11.40;91.50;;;;;;5033754;28;20064;-69
2022/03/28 09:40:41;;;;;;;16.77;6.88;;;11.40;91.60;;;;;;5033011;28;20488;-66
2022/03/28 09:43:22;;;;;;;16.15;7.95;;;11.40;91.50;;;;;;5020926;28;20040;-67
2022/03/28 09:45:56;;;;;;;22.40;10.25;;;11.50;91.50;;;;;;5031258;28;20456;-67
2022/03/28 09:48:24;;;;;;;19.80;10.00;;;11.50;91.50;;;;;;5025882;28;20420;-67
2022/03/28 09:50:58;;;;;;;18.50;9.63;;;11.50;91.50;;;;;;5017582;28;20048;-67
2022/03/28 09:53:35;;;;;;;18.05;8.68;;;11.60;91.50;;;;;;5032110;28;20494;-67
2022/03/28 09:56:06;;;;;;;23.77;8.43;;;11.60;91.50;;;;;;5031498;28;20053;-66
2022/03/28 09:58:33;;;;;;;22.15;10.25;;;11.60;91.50;;;;;;5031904;28;20056;-67
2022/03/28 10:01:00;;;;;;;18.85;9.00;;;11.70;91.50;;;;;;5032457;28;20034;-67
2022/03/28 10:03:27;;;;;;;16.88;8.43;;;11.70;91.50;;;;;;5015963;28;20033;-67
2022/03/28 10:05:54;;;;;;;16.83;8.93;;;11.70;91.50;;;;;;5012415;28;20030;-66
2022/03/28 10:08:20;;;;;;;23.00;8.13;;;11.70;91.50;;;;;;5027730;28;20472;-66
2022/03/28 10:10:45;;;;;;;16.88;9.27;;;11.70;91.50;;;;;;5031542;28;20116;-66
2022/03/28 10:13:11;;;;;;;17.90;8.05;;;11.80;91.40;;;;;;5018883;28;20053;-66
2022/03/28 10:15:37;;;;;;;14.77;7.38;;;11.80;91.50;;;;;;5029090;28;20492;-67
2022/03/28 10:18:04;;;;;;;15.18;7.68;;;11.80;91.30;;;;;;5030061;28;20037;-67
2022/03/28 10:20:30;;;;;;;11.52;5.85;;;11.80;91.30;;;;;;5031926;28;20033;-67
2022/03/28 10:22:58;;;;;;;14.93;7.70;;;11.80;91.30;;;;;;5028062;28;20041;-67
2022/03/28 10:25:25;;;;;;;15.80;7.65;;;11.80;91.30;;;;;;5030420;28;20029;-67
2022/03/28 10:27:52;;;;;;;15.68;7.75;;;11.90;91.20;;;;;;5030103;28;20330;-67
2022/03/28 10:30:20;;;;;;;17.02;8.88;;;11.90;91.20;;;;;;5029895;28;20571;-67
2022/03/28 10:32:46;;;;;;;16.98;8.50;;;11.90;91.20;;;;;;5030632;28;20492;-67
2022/03/28 10:35:13;;;;;;;21.75;9.90;;;11.90;91.20;;;;;;5032060;28;20627;-67
2022/03/28 10:37:48;;;;;;;16.55;8.40;;;12.00;91.10;;;;;;5029838;28;20033;-70
2022/03/28 10:40:31;;;;;;;18.67;9.63;;;12.00;91.00;;;;;;5023154;28;20041;-67
2022/03/28 10:43:14;;;;;;;21.05;9.07;;;12.10;91.00;;;;;;5031622;28;20662;-68
2022/03/28 10:45:59;;;;;;;20.57;9.20;;;12.10;90.90;;;;;;5021572;28;20034;-71
2022/03/28 10:48:48;;;;;;;23.73;9.15;;;12.10;90.90;;;;;;5030154;28;20079;-69
2022/03/28 10:51:18;;;;;;;16.80;9.35;;;12.10;90.90;;;;;;5030787;28;20033;-70
2022/03/28 10:53:47;;;;;;;15.95;9.18;;;12.10;90.80;;;;;;5030919;28;20091;-69
2022/03/28 10:56:17;;;;;;;17.38;8.98;;;12.10;90.90;;;;;;5030299;28;20060;-70
2022/03/28 10:58:54;;;;;;;17.83;9.00;;;12.10;90.80;;;;;;5022433;28;20140;-69
2022/03/28 11:01:43;;;;;;;19.55;8.00;;;12.10;90.80;;;;;;5029095;28;20025;-69
2022/03/28 11:04:25;;;;;;;14.73;8.13;;;12.10;91.10;;;;;;5024715;28;20071;-69
2022/03/28 11:07:00;;;;;;;17.88;9.00;;;12.20;90.70;;;;;;5024949;28;20091;-70
2022/03/28 11:09:41;;;;;;;16.38;8.80;;;12.20;90.70;;;;;;5029067;28;20025;-69
2022/03/28 11:12:14;;;;;;;25.70;9.15;;;12.30;90.70;;;;;;5027837;28;20124;-69
2022/03/28 11:14:44;;;;;;;17.67;7.43;;;12.30;90.70;;;;;;5027099;28;20108;-68
2022/03/28 11:17:17;;;;;;;16.02;7.47;;;12.30;90.70;;;;;;5026172;28;20451;-67
2022/03/28 11:19:56;;;;;;;21.73;9.48;;;12.30;90.80;;;;;;5020483;28;20451;-67
2022/03/28 11:22:47;;;;;;;16.35;9.10;;;12.30;90.70;;;;;;5029903;28;20033;-67
2022/03/28 11:25:36;;;;;;;8.38;4.05;;;12.30;90.60;;;;;;5030080;28;20490;-67
2022/03/28 11:28:07;;;;;;;16.60;7.57;;;12.40;90.80;;;;;;5028456;28;20474;-67
2022/03/28 11:30:45;;;;;;;14.45;6.75;;;12.40;90.90;;;;;;5031698;28;20092;-67
2022/03/28 11:33:14;;;;;;;18.23;8.23;;;12.40;90.90;;;;;;5034623;28;20079;-67
2022/03/28 11:35:54;;;;;;;16.77;8.52;;;12.40;90.80;;;;;;5026680;28;20024;-67
2022/03/28 11:38:28;;;;;;;16.60;8.75;;;12.40;90.80;;;;;;5033799;28;20408;-67
2022/03/28 11:40:55;;;;;;;22.05;8.88;;;12.50;90.70;;;;;;5032521;28;20489;-67
2022/03/28 11:43:33;;;;;;;13.27;7.85;;;12.50;90.60;;;;;;5033604;28;20037;-67
2022/03/28 11:46:01;;;;;;;19.23;8.27;;;12.60;90.50;;;;;;5030663;28;20477;-67
2022/03/28 11:48:26;;;;;;;16.58;8.32;;;12.60;90.40;;;;;;5033022;28;20052;-67
2022/03/28 11:50:54;;;;;;;14.23;6.97;;;12.60;90.40;;;;;;5033422;28;20064;-67
2022/03/28 11:53:19;;;;;;;19.45;9.07;;;12.70;90.40;;;;;;5033296;28;20033;-67
2022/03/28 11:55:52;;;;;;;15.15;8.45;;;12.80;90.40;;;;;;5032787;28;20111;-69
2022/03/28 11:58:29;;;;;;;11.18;7.95;;;12.80;90.40;;;;;;5033300;28;20365;-69
2022/03/28 12:01:07;;;;;;;17.55;8.57;;;12.80;90.30;;;;;;5033208;28;20045;-67
2022/03/28 12:03:33;;;;;;;17.42;8.07;;;12.90;90.20;;;;;;5032415;28;20036;-67
2022/03/28 12:06:01;;;;;;;15.50;9.32;;;13.00;90.20;;;;;;5033305;28;20374;-67
2022/03/28 12:08:28;;;;;;;16.92;7.95;;;13.00;90.00;;;;;;5032487;28;20025;-67
2022/03/28 12:10:54;;;;;;;15.98;9.07;;;13.00;90.00;;;;;;5033364;28;20048;-67
2022/03/28 12:13:25;;;;;;;14.95;8.65;;;13.00;90.00;;;;;;5033355;28;20025;-69
2022/03/28 12:15:53;;;;;;;12.25;5.95;;;13.00;89.60;;;;;;5028779;28;20036;-67
2022/03/28 12:18:22;;;;;;;21.08;8.63;;;13.10;90.00;;;;;;5019945;28;20045;-67
2022/03/28 12:20:53;;;;;;;6.43;3.60;;;13.10;90.00;;;;;;5033361;28;20640;-67
2022/03/28 12:23:25;;;;;;;10.48;7.03;;;13.10;90.10;;;;;;5032275;28;20561;-67
2022/03/28 12:25:52;;;;;;;7.40;4.90;;;13.00;90.30;;;;;;5033910;28;20034;-67
2022/03/28 12:28:23;;;;;;;10.10;5.93;;;13.10;90.40;;;;;;5014252;28;20034;-67
2022/03/28 12:30:51;;;;;;;11.43;6.60;;;13.10;90.50;;;;;;5013269;28;20044;-66
2022/03/28 12:33:24;;;;;;;10.00;5.70;;;13.00;90.40;;;;;;5026966;28;20493;-66
2022/03/28 12:35:59;;;;;;;10.35;6.70;;;13.00;90.40;;;;;;5026379;28;20057;-66
2022/03/28 12:38:27;;;;;;;10.98;5.63;;;13.00;90.20;;;;;;5021236;28;20068;-66
2022/03/28 12:40:56;;;;;;;12.30;5.70;;;13.10;90.30;;;;;;5024226;28;20036;-70
2022/03/28 12:43:25;;;;;;;13.35;6.57;;;13.10;90.40;;;;;;5031125;28;20025;-66
2022/03/28 12:46:01;;;;;;;13.30;6.70;;;13.10;90.40;;;;;;5018131;28;20034;-67
2022/03/28 12:48:38;;;;;;;13.60;6.68;;;13.10;90.20;;;;;;5033436;28;20038;-66
2022/03/28 12:51:05;;;;;;;9.90;6.10;;;13.20;90.00;;;;;;5018696;28;20030;-67